Terminal Aerodrome Forecast
Issued by NWS Wilmington, OH

Current Version | Previous Version | Text Only | Print | Product List | Glossary Off
Versions: 1 2 3 4 5 6 7 8 9 10 11 12 13 14 15 16 17 18

000
FTUS41 KILN 272334
TAFDAY
TAF
KDAY 272334Z 2800/2824 VRB03KT P6SM FEW045 SCT060
     FM281000 09003KT 5SM BR SCT250
     FM281300 13006KT P6SM BKN250=

USA.gov is the U.S. government's official web portal to all federal, state and local government web resources and services.